Time;durP1;ratioP1;P1;durP2;ratioP2;P2;SDS_P1;SDS_P2;PMS_P1;PMS_P2;Temp;Humidity;BMP_temperature;BMP_pressure;BME280_temperature;BME280_humidity;BME280_pressure;Samples;Min_cycle;Max_cycle;Signal;HPM_P1;HPM_P2
2023/05/31 00:01:28;;;;;;;1.73;1.63;;;14.80;1.00;;;;;;5193776;28;20035;-70
2023/05/31 00:04:00;;;;;;;1.88;1.30;;;14.70;1.00;;;;;;5195802;28;20052;-69
2023/05/31 00:06:35;;;;;;;2.53;1.80;;;14.80;1.00;;;;;;5202342;28;20076;-67
2023/05/31 00:09:09;;;;;;;1.65;1.42;;;14.70;1.00;;;;;;5215386;28;20035;-67
2023/05/31 00:11:43;;;;;;;3.70;1.50;;;14.70;1.00;;;;;;5213501;28;20047;-66
2023/05/31 00:14:16;;;;;;;3.92;1.45;;;14.70;1.00;;;;;;5199376;28;20070;-71
2023/05/31 00:16:48;;;;;;;2.20;1.38;;;14.80;1.00;;;;;;5229907;28;20032;-71
2023/05/31 00:19:24;;;;;;;2.10;1.50;;;14.80;1.00;;;;;;5216754;28;20047;-69
2023/05/31 00:21:56;;;;;;;1.92;1.75;;;14.80;1.00;;;;;;5235801;28;20470;-68
2023/05/31 00:24:30;;;;;;;1.20;1.10;;;14.80;1.00;;;;;;5217628;28;20042;-68
2023/05/31 00:27:02;;;;;;;2.22;2.03;;;14.70;1.00;;;;;;5204310;28;20047;-68
2023/05/31 00:29:38;;;;;;;4.15;1.38;;;14.70;1.00;;;;;;5216800;28;20026;-68
2023/05/31 00:32:10;;;;;;;1.80;1.10;;;14.70;1.00;;;;;;5214743;28;20025;-69
2023/05/31 00:34:42;;;;;;;1.02;1.00;;;14.70;1.00;;;;;;5233608;28;20508;-69
2023/05/31 00:37:15;;;;;;;5.38;1.45;;;14.70;1.00;;;;;;5234802;28;20028;-67
2023/05/31 00:39:47;;;;;;;1.60;1.50;;;14.70;1.00;;;;;;5217652;28;20032;-68
2023/05/31 00:42:21;;;;;;;2.92;1.58;;;14.70;1.00;;;;;;5198652;28;20024;-70
2023/05/31 00:44:52;;;;;;;1.83;1.42;;;14.70;1.00;;;;;;5232675;28;20038;-70
2023/05/31 00:47:27;;;;;;;1.23;1.13;;;14.60;1.00;;;;;;5194468;28;20035;-69
2023/05/31 00:50:03;;;;;;;;;;;14.60;1.00;;;;;;5235928;28;20037;-71
2023/05/31 00:52:35;;;;;;;4.13;2.05;;;14.60;1.00;;;;;;5189578;28;19916;-71
2023/05/31 00:55:09;;;;;;;3.33;1.50;;;14.60;1.00;;;;;;5233376;28;20035;-69
2023/05/31 00:57:47;;;;;;;3.63;1.98;;;14.60;1.00;;;;;;5217919;28;20052;-67
2023/05/31 01:00:26;;;;;;;1.30;1.20;;;14.50;1.00;;;;;;5232337;28;20036;-69
2023/05/31 01:03:01;;;;;;;2.47;1.70;;;14.50;1.00;;;;;;5237553;23;20051;-69
2023/05/31 01:05:34;;;;;;;4.28;2.05;;;14.40;1.00;;;;;;5206536;28;20055;-71
2023/05/31 01:08:05;;;;;;;1.98;1.50;;;14.30;1.00;;;;;;5179708;28;20571;-70
2023/05/31 01:10:43;;;;;;;3.30;1.35;;;14.30;1.00;;;;;;5195571;28;20035;-71
2023/05/31 01:13:37;;;;;;;2.45;1.63;;;14.30;99.90;;;;;;5213748;28;20055;-67
2023/05/31 01:16:36;;;;;;;1.45;1.33;;;14.20;1.00;;;;;;5232447;28;20207;-71
2023/05/31 01:19:16;;;;;;;1.25;1.15;;;14.20;1.00;;;;;;5200089;28;20036;-66
2023/05/31 01:22:14;;;;;;;1.70;1.27;;;14.20;1.00;;;;;;5234366;28;20016;-72
2023/05/31 01:25:20;;;;;;;1.90;1.65;;;14.30;1.00;;;;;;5232339;28;20466;-72
2023/05/31 01:27:53;;;;;;;1.27;1.10;;;14.20;1.00;;;;;;5243089;28;20042;-72
2023/05/31 01:30:27;;;;;;;1.30;1.20;;;14.10;1.00;;;;;;5234928;28;20027;-69
2023/05/31 01:33:04;;;;;;;1.77;1.13;;;14.10;1.00;;;;;;5249560;28;20036;-69
2023/05/31 01:35:38;;;;;;;2.40;1.73;;;14.10;1.00;;;;;;5235884;28;20024;-72
2023/05/31 01:38:12;;;;;;;3.45;1.33;;;14.00;99.90;;;;;;5218786;28;20037;-71
2023/05/31 01:40:44;;;;;;;1.83;1.50;;;13.90;99.90;;;;;;5215481;28;20028;-69
2023/05/31 01:43:17;;;;;;;2.25;1.20;;;13.90;1.00;;;;;;5203894;28;20024;-70
2023/05/31 01:45:54;;;;;;;2.73;1.47;;;13.90;1.00;;;;;;5213819;28;20033;-67
2023/05/31 01:48:28;;;;;;;1.50;1.40;;;13.90;1.00;;;;;;5232964;28;20028;-69
2023/05/31 01:51:00;;;;;;;2.65;1.70;;;13.90;1.00;;;;;;5228095;28;20041;-71
2023/05/31 01:53:33;;;;;;;4.75;1.90;;;13.80;1.00;;;;;;5229469;28;20040;-67
2023/05/31 01:56:10;;;;;;;1.92;1.50;;;13.80;1.00;;;;;;5198975;28;20385;-70
2023/05/31 01:58:48;;;;;;;3.28;1.63;;;13.70;1.00;;;;;;5232773;28;20035;-70
2023/05/31 02:01:20;;;;;;;1.35;1.25;;;13.60;1.00;;;;;;5214868;28;20029;-67
2023/05/31 02:03:54;;;;;;;1.88;1.67;;;13.60;1.00;;;;;;5235823;28;20674;-67
2023/05/31 02:06:27;;;;;;;4.78;1.50;;;13.60;1.00;;;;;;5218469;28;20103;-69
2023/05/31 02:08:59;;;;;;;1.88;1.40;;;13.60;1.00;;;;;;5256255;28;20366;-67
2023/05/31 02:11:30;;;;;;;2.15;1.27;;;13.60;1.00;;;;;;5236932;28;20029;-69
2023/05/31 02:14:06;;;;;;;2.47;1.60;;;13.50;1.00;;;;;;5242741;28;20038;-70
2023/05/31 02:16:38;;;;;;;2.10;1.30;;;13.50;1.00;;;;;;5217473;28;20048;-71
2023/05/31 02:19:13;;;;;;;2.53;2.22;;;13.50;1.00;;;;;;5251361;28;20019;-71
2023/05/31 02:21:47;;;;;;;3.05;1.25;;;13.40;1.00;;;;;;5220096;28;20046;-70
2023/05/31 02:24:22;;;;;;;3.85;1.88;;;13.40;1.00;;;;;;5249850;28;20317;-66
2023/05/31 02:26:59;;;;;;;1.70;1.48;;;13.40;1.00;;;;;;5205080;28;20043;-67
2023/05/31 02:29:30;;;;;;;1.70;1.60;;;13.40;1.00;;;;;;5248283;28;20025;-69
2023/05/31 02:32:04;;;;;;;2.50;1.42;;;13.50;1.00;;;;;;5252004;28;20038;-69
2023/05/31 02:34:38;;;;;;;1.70;1.60;;;13.40;1.00;;;;;;5254976;28;20044;-69
2023/05/31 02:37:09;;;;;;;1.52;1.30;;;13.40;1.00;;;;;;5238270;28;20048;-67
2023/05/31 02:39:43;;;;;;;2.25;1.90;;;13.40;1.00;;;;;;5220516;28;20058;-69
2023/05/31 02:42:18;;;;;;;2.45;2.15;;;13.40;1.00;;;;;;5237818;28;20028;-67
2023/05/31 02:44:53;;;;;;;1.50;1.30;;;13.40;1.00;;;;;;5203790;28;20032;-69
2023/05/31 02:47:25;;;;;;;;;;;13.40;1.00;;;;;;5228979;28;20590;-67
2023/05/31 02:49:59;;;;;;;1.40;1.30;;;13.30;1.00;;;;;;5224390;28;19911;-71
2023/05/31 02:52:31;;;;;;;1.77;1.67;;;13.20;1.00;;;;;;5252588;28;20027;-66
2023/05/31 02:55:05;;;;;;;1.98;1.27;;;13.20;1.00;;;;;;5238370;28;20028;-70
2023/05/31 02:57:37;;;;;;;1.80;1.70;;;13.20;1.00;;;;;;5219910;28;20028;-66
2023/05/31 03:00:13;;;;;;;1.63;1.45;;;13.20;1.00;;;;;;5236062;28;20029;-71
2023/05/31 03:02:44;;;;;;;3.13;1.50;;;13.20;1.00;;;;;;5198952;28;20047;-70
2023/05/31 03:05:17;;;;;;;2.08;1.58;;;13.30;1.00;;;;;;5225806;28;20042;-70
2023/05/31 03:07:52;;;;;;;1.75;1.40;;;13.30;1.00;;;;;;5208598;28;20039;-70
2023/05/31 03:10:23;;;;;;;2.13;1.42;;;13.30;1.00;;;;;;5177554;28;20027;-68
2023/05/31 03:12:55;;;;;;;4.35;1.65;;;13.40;1.00;;;;;;5219415;28;20561;-65
2023/05/31 03:15:27;;;;;;;1.63;1.52;;;13.40;1.00;;;;;;5116631;28;20069;-68
2023/05/31 03:18:00;;;;;;;2.00;1.48;;;13.40;1.00;;;;;;5151746;28;20049;-67
2023/05/31 03:20:33;;;;;;;1.90;1.33;;;13.40;1.00;;;;;;5152705;28;20033;-68
2023/05/31 03:23:05;;;;;;;2.13;1.75;;;13.40;1.00;;;;;;5136355;28;20524;-69
2023/05/31 03:25:39;;;;;;;1.63;1.52;;;13.50;1.00;;;;;;5119583;28;20140;-69
2023/05/31 03:28:15;;;;;;;14.60;2.08;;;13.40;1.00;;;;;;5127080;28;20034;-69
2023/05/31 03:30:47;;;;;;;3.25;1.75;;;13.50;1.00;;;;;;5149893;28;20036;-68
2023/05/31 03:33:21;;;;;;;1.83;1.42;;;13.50;1.00;;;;;;5148370;28;20025;-70
2023/05/31 03:35:53;;;;;;;2.08;1.65;;;13.50;1.00;;;;;;5151240;28;20487;-69
2023/05/31 03:38:25;;;;;;;1.20;1.13;;;13.50;1.00;;;;;;5151315;28;20208;-66
2023/05/31 03:40:59;;;;;;;1.73;1.63;;;13.50;1.00;;;;;;5118068;28;20038;-69
2023/05/31 03:43:31;;;;;;;;;;;13.60;1.00;;;;;;5119779;28;20042;-65
2023/05/31 03:46:07;;;;;;;1.63;1.08;;;13.60;1.00;;;;;;5149507;28;19908;-70
2023/05/31 03:48:41;;;;;;;1.80;1.40;;;13.70;1.00;;;;;;5125529;28;20049;-70
2023/05/31 03:51:12;;;;;;;1.50;1.40;;;13.70;1.00;;;;;;5200501;28;20083;-70
2023/05/31 03:53:46;;;;;;;6.05;1.38;;;13.80;1.00;;;;;;5149312;28;20038;-70
2023/05/31 03:56:17;;;;;;;4.22;1.80;;;13.90;1.00;;;;;;5149227;28;20053;-68
2023/05/31 03:58:49;;;;;;;2.25;1.48;;;14.00;1.00;;;;;;5164661;28;20040;-71
2023/05/31 04:01:23;;;;;;;5.25;2.00;;;14.10;1.00;;;;;;5128560;28;20101;-69
2023/05/31 04:03:57;;;;;;;1.92;1.77;;;14.20;1.00;;;;;;5180050;28;20047;-68
2023/05/31 04:06:31;;;;;;;1.60;1.50;;;14.30;1.00;;;;;;5192492;28;20058;-67
2023/05/31 04:09:04;;;;;;;2.00;1.77;;;14.40;1.00;;;;;;5119758;28;20038;-72
2023/05/31 04:11:37;;;;;;;2.08;1.73;;;14.50;1.00;;;;;;5112428;28;20037;-70
2023/05/31 04:14:09;;;;;;;1.23;1.13;;;14.70;1.00;;;;;;5112888;28;20042;-68
2023/05/31 04:16:44;;;;;;;4.40;1.23;;;14.80;1.00;;;;;;5115386;28;20175;-67
2023/05/31 04:19:15;;;;;;;2.00;1.80;;;15.00;1.00;;;;;;5148383;28;20042;-69
2023/05/31 04:21:46;;;;;;;2.08;1.40;;;15.20;1.00;;;;;;5150066;28;20030;-68
2023/05/31 04:24:20;;;;;;;1.60;1.50;;;15.30;1.00;;;;;;5149925;28;20038;-68
2023/05/31 04:26:52;;;;;;;1.40;1.25;;;15.40;1.00;;;;;;5117172;28;20436;-69
2023/05/31 04:29:26;;;;;;;5.65;1.70;;;15.40;1.00;;;;;;5158278;28;20038;-69
2023/05/31 04:31:58;;;;;;;2.63;1.58;;;15.50;1.00;;;;;;5113716;28;20034;-69
2023/05/31 04:34:36;;;;;;;2.70;1.42;;;15.40;1.00;;;;;;5150142;28;20044;-69
2023/05/31 04:37:13;;;;;;;1.60;1.50;;;15.40;1.00;;;;;;5163542;28;20039;-69
2023/05/31 04:39:46;;;;;;;1.90;1.23;;;15.50;1.00;;;;;;5134593;28;20139;-70
2023/05/31 04:42:20;;;;;;;1.90;1.70;;;15.60;1.00;;;;;;5131837;28;20026;-69
2023/05/31 04:45:00;;;;;;;5.03;2.05;;;15.70;1.00;;;;;;5144027;28;20698;-70
2023/05/31 04:47:32;;;;;;;1.63;1.33;;;15.90;1.00;;;;;;5143987;28;20027;-69
2023/05/31 04:50:03;;;;;;;2.45;1.27;;;15.70;1.00;;;;;;5131510;28;20049;-70
2023/05/31 04:52:40;;;;;;;5.78;1.88;;;15.70;1.00;;;;;;5162552;28;20061;-69
2023/05/31 04:55:11;;;;;;;1.80;1.70;;;15.80;1.00;;;;;;5114183;28;20034;-71
2023/05/31 04:57:48;;;;;;;2.83;1.40;;;15.80;1.00;;;;;;5150198;28;20042;-71
2023/05/31 05:00:22;;;;;;;2.30;1.65;;;15.70;1.00;;;;;;5150408;28;20038;-70
2023/05/31 05:02:56;;;;;;;5.38;1.90;;;15.80;1.00;;;;;;5211000;28;20245;-71
2023/05/31 05:05:29;;;;;;;3.22;1.55;;;15.80;1.00;;;;;;5138947;28;20058;-68
2023/05/31 05:08:04;;;;;;;1.67;1.20;;;16.00;1.00;;;;;;5120615;28;20022;-70
2023/05/31 05:10:44;;;;;;;1.88;1.20;;;16.10;1.00;;;;;;5148793;28;20030;-65
2023/05/31 05:13:18;;;;;;;4.35;1.38;;;16.20;1.00;;;;;;5153278;28;20044;-69
2023/05/31 05:15:53;;;;;;;1.55;1.25;;;16.20;1.00;;;;;;5110078;28;20055;-71
2023/05/31 05:18:27;;;;;;;2.15;1.70;;;16.40;1.00;;;;;;5225037;28;20537;-69
2023/05/31 05:21:01;;;;;;;2.35;1.83;;;16.60;1.00;;;;;;5141376;28;20026;-70
2023/05/31 05:23:37;;;;;;;1.70;1.30;;;16.60;1.00;;;;;;5151783;28;20053;-69
2023/05/31 05:26:08;;;;;;;2.88;1.65;;;16.70;1.00;;;;;;5147927;28;20042;-68
2023/05/31 05:28:43;;;;;;;2.88;1.52;;;17.00;1.00;;;;;;5149024;28;20034;-70
2023/05/31 05:31:14;;;;;;;4.70;2.70;;;17.20;1.00;;;;;;5142874;28;20041;-70
2023/05/31 05:33:52;;;;;;;2.30;1.40;;;17.30;1.00;;;;;;5146709;28;20033;-70
2023/05/31 05:36:26;;;;;;;3.03;1.60;;;17.10;1.00;;;;;;5149648;28;20021;-69
2023/05/31 05:39:03;;;;;;;1.65;1.25;;;17.10;1.00;;;;;;5122892;28;20042;-71
2023/05/31 05:41:34;;;;;;;2.20;1.48;;;17.00;1.00;;;;;;5180377;28;20026;-73
2023/05/31 05:44:11;;;;;;;4.68;2.40;;;16.90;1.00;;;;;;5165102;28;20041;-70
2023/05/31 05:46:45;;;;;;;2.70;1.38;;;17.00;1.00;;;;;;5118858;28;20040;-69
2023/05/31 05:49:17;;;;;;;1.42;1.30;;;16.80;1.00;;;;;;5154318;28;20048;-69
2023/05/31 05:51:48;;;;;;;2.38;1.73;;;16.90;1.00;;;;;;5122165;28;20041;-69
2023/05/31 05:54:22;;;;;;;2.60;1.88;;;16.90;1.00;;;;;;5153485;28;20022;-70
2023/05/31 05:56:59;;;;;;;2.20;1.60;;;16.90;1.00;;;;;;5161673;28;20038;-70
2023/05/31 05:59:31;;;;;;;2.97;1.33;;;17.20;1.00;;;;;;5122457;28;20050;-70
2023/05/31 06:02:03;;;;;;;1.63;1.42;;;17.50;1.00;;;;;;5132650;28;20040;-70
2023/05/31 06:04:46;;;;;;;2.20;1.42;;;17.50;1.00;;;;;;5143227;28;20051;-69
2023/05/31 06:07:19;;;;;;;1.42;1.33;;;17.60;1.00;;;;;;5173365;28;20036;-69
2023/05/31 06:09:53;;;;;;;2.45;1.33;;;17.80;1.00;;;;;;5123230;28;20061;-68
2023/05/31 06:12:26;;;;;;;1.98;1.65;;;17.90;1.00;;;;;;5119271;28;20034;-68
2023/05/31 06:14:57;;;;;;;1.90;1.30;;;18.00;1.00;;;;;;5134061;28;20632;-70
2023/05/31 06:17:29;;;;;;;4.43;1.67;;;18.00;1.00;;;;;;5114569;28;20038;-71
2023/05/31 06:20:08;;;;;;;3.25;1.50;;;17.70;1.00;;;;;;5135738;28;20034;-71
2023/05/31 06:22:42;;;;;;;1.45;1.13;;;17.80;1.00;;;;;;5220428;28;20060;-71
2023/05/31 06:25:13;;;;;;;2.75;1.55;;;17.60;1.00;;;;;;5119537;28;20599;-73
2023/05/31 06:27:53;;;;;;;1.00;0.93;;;17.70;1.00;;;;;;5164141;28;20022;-70
2023/05/31 06:30:24;;;;;;;1.55;1.45;;;18.00;1.00;;;;;;5200476;28;20034;-68
2023/05/31 06:32:58;;;;;;;1.70;0.98;;;18.10;1.00;;;;;;5167036;28;20041;-70
2023/05/31 06:35:30;;;;;;;1.40;1.30;;;18.20;1.00;;;;;;5126632;28;20045;-70
2023/05/31 06:38:03;;;;;;;1.73;1.60;;;18.20;1.00;;;;;;5221640;28;20022;-70
2023/05/31 06:40:36;;;;;;;3.05;1.65;;;18.10;1.00;;;;;;5153137;28;20038;-70
2023/05/31 06:43:10;;;;;;;1.60;1.40;;;18.20;1.00;;;;;;5119232;28;20441;-69
2023/05/31 06:45:41;;;;;;;;;;;18.30;1.00;;;;;;5147101;28;20034;-69
2023/05/31 06:48:12;;;;;;;1.58;1.27;;;18.50;1.00;;;;;;5153730;28;19920;-69
2023/05/31 06:50:45;;;;;;;2.13;1.92;;;18.60;1.00;;;;;;5151797;28;20027;-68
2023/05/31 06:53:16;;;;;;;5.97;1.70;;;18.50;1.00;;;;;;5123116;28;20038;-69
2023/05/31 06:55:50;;;;;;;2.42;1.83;;;18.50;1.00;;;;;;5145992;28;20152;-69
2023/05/31 06:58:24;;;;;;;4.53;2.08;;;18.50;1.00;;;;;;5140352;28;20053;-70
2023/05/31 07:00:57;;;;;;;1.67;1.57;;;18.70;1.00;;;;;;5185166;28;20041;-67
2023/05/31 07:03:31;;;;;;;1.67;1.30;;;18.70;1.00;;;;;;5150435;28;20274;-71
2023/05/31 07:06:02;;;;;;;2.13;1.40;;;18.60;1.00;;;;;;5132438;28;20111;-69
2023/05/31 07:08:36;;;;;;;2.05;1.58;;;18.80;1.00;;;;;;5133093;28;20461;-70
2023/05/31 07:11:07;;;;;;;1.80;1.33;;;18.90;1.00;;;;;;5143273;28;20026;-68
2023/05/31 07:13:38;;;;;;;1.63;1.35;;;18.80;1.00;;;;;;5142757;28;20041;-70
2023/05/31 07:16:12;;;;;;;1.63;1.52;;;19.30;1.00;;;;;;5150306;28;20405;-69
2023/05/31 07:18:47;;;;;;;2.08;1.30;;;19.60;1.00;;;;;;5143113;28;20035;-69
2023/05/31 07:21:21;;;;;;;2.05;1.58;;;20.10;1.00;;;;;;5141578;28;20034;-70
2023/05/31 07:23:58;;;;;;;2.47;1.80;;;20.50;1.00;;;;;;5124194;28;20033;-70
2023/05/31 07:26:29;;;;;;;2.63;1.48;;;20.70;1.00;;;;;;5168014;28;20038;-69
2023/05/31 07:29:05;;;;;;;2.95;1.45;;;20.50;1.00;;;;;;5172575;28;20064;-70
2023/05/31 07:31:39;;;;;;;2.00;1.60;;;20.40;1.00;;;;;;5151004;28;20249;-70
2023/05/31 07:34:10;;;;;;;2.80;1.83;;;20.60;1.00;;;;;;5136581;28;20030;-69
2023/05/31 07:36:41;;;;;;;2.55;1.42;;;20.50;1.00;;;;;;5151299;28;20038;-69
2023/05/31 07:39:13;;;;;;;1.45;1.30;;;20.70;1.00;;;;;;5184254;28;20520;-69
2023/05/31 07:41:44;;;;;;;2.38;1.30;;;20.60;1.00;;;;;;5150231;28;20034;-70
2023/05/31 07:44:19;;;;;;;3.05;1.25;;;20.80;1.00;;;;;;5217671;28;20343;-68
2023/05/31 07:46:51;;;;;;;2.17;1.27;;;21.00;1.00;;;;;;5153211;28;20035;-71
2023/05/31 07:49:22;;;;;;;3.17;1.45;;;21.40;1.00;;;;;;5149521;28;20035;-69
2023/05/31 07:51:53;;;;;;;4.07;1.77;;;21.60;1.00;;;;;;5107549;28;20056;-70
2023/05/31 07:54:25;;;;;;;4.00;1.67;;;21.00;1.00;;;;;;5134307;28;20113;-70
2023/05/31 07:56:56;;;;;;;1.85;1.13;;;20.80;1.00;;;;;;5231464;28;20068;-69
2023/05/31 07:59:30;;;;;;;4.22;1.60;;;20.90;1.00;;;;;;5131857;28;20117;-69
2023/05/31 08:02:02;;;;;;;4.50;2.15;;;21.00;1.00;;;;;;5165241;28;20038;-71
2023/05/31 08:04:34;;;;;;;2.40;1.30;;;21.00;1.00;;;;;;5139251;28;20046;-69
2023/05/31 08:07:07;;;;;;;4.38;1.80;;;21.10;1.00;;;;;;5154394;28;20022;-70
2023/05/31 08:09:38;;;;;;;1.85;1.30;;;21.30;1.00;;;;;;5114738;28;20707;-69
2023/05/31 08:12:12;;;;;;;2.42;2.08;;;21.30;1.00;;;;;;5131228;28;20018;-69
2023/05/31 08:14:43;;;;;;;4.72;1.92;;;21.10;1.00;;;;;;5108409;28;20054;-68
2023/05/31 08:17:14;;;;;;;1.95;1.50;;;21.40;1.00;;;;;;5146939;28;20037;-70
2023/05/31 08:19:46;;;;;;;4.80;1.70;;;22.40;1.00;;;;;;5150766;28;20026;-70
2023/05/31 08:22:17;;;;;;;1.60;1.25;;;22.10;1.00;;;;;;5216335;28;20038;-71
2023/05/31 08:24:49;;;;;;;3.05;1.38;;;22.60;1.00;;;;;;5148966;28;20045;-69
2023/05/31 08:27:21;;;;;;;4.70;1.40;;;22.70;1.00;;;;;;5133845;28;20445;-68
2023/05/31 08:29:52;;;;;;;1.35;1.23;;;22.30;1.00;;;;;;5149408;28;20032;-70
2023/05/31 08:32:28;;;;;;;2.28;1.38;;;22.30;1.00;;;;;;5145779;28;20048;-68
2023/05/31 08:35:00;;;;;;;1.75;1.65;;;22.50;1.00;;;;;;5116552;28;20035;-69
2023/05/31 08:37:40;;;;;;;7.53;1.55;;;22.00;1.00;;;;;;5117435;28;20049;-70
2023/05/31 08:40:11;;;;;;;1.33;1.23;;;22.50;1.00;;;;;;5214996;28;20042;-68
2023/05/31 08:42:51;;;;;;;2.13;1.48;;;22.80;1.00;;;;;;5151811;28;20027;-69
2023/05/31 08:45:28;;;;;;;1.75;1.30;;;23.00;1.00;;;;;;5115631;28;20469;-68
2023/05/31 08:48:38;;;;;;;3.85;1.80;;;23.10;1.00;;;;;;5151511;28;20041;-69
2023/05/31 08:51:10;;;;;;;2.75;1.70;;;23.50;1.00;;;;;;5149764;28;20835;-70
2023/05/31 08:53:42;;;;;;;2.83;1.65;;;23.50;1.00;;;;;;5116979;28;20041;-70
2023/05/31 08:56:15;;;;;;;4.35;2.17;;;23.90;1.00;;;;;;5117658;28;20030;-69
2023/05/31 08:58:53;;;;;;;4.63;1.52;;;23.50;1.00;;;;;;5151873;28;20053;-71
2023/05/31 09:01:27;;;;;;;3.88;1.60;;;22.90;1.00;;;;;;5182272;28;20627;-67
2023/05/31 09:03:59;;;;;;;2.53;1.48;;;22.50;1.00;;;;;;5153922;28;20030;-69
2023/05/31 09:06:30;;;;;;;1.85;1.65;;;22.60;1.00;;;;;;5133503;28;20051;-71
2023/05/31 09:09:02;;;;;;;1.92;1.52;;;23.30;1.00;;;;;;5134549;28;20030;-71
2023/05/31 09:11:42;;;;;;;1.90;1.60;;;24.10;1.00;;;;;;5180451;28;20040;-72
2023/05/31 09:14:13;;;;;;;2.35;1.48;;;23.70;1.00;;;;;;5225882;28;20042;-71
2023/05/31 09:16:51;;;;;;;3.67;1.83;;;24.20;1.00;;;;;;5120478;28;20042;-69
2023/05/31 09:19:22;;;;;;;2.13;1.50;;;23.90;1.00;;;;;;5152996;28;20034;-70
2023/05/31 09:21:53;;;;;;;2.47;1.45;;;24.30;1.00;;;;;;5152247;28;20022;-71
2023/05/31 09:24:25;;;;;;;3.72;1.65;;;24.20;1.00;;;;;;5134420;28;20026;-70
2023/05/31 09:26:56;;;;;;;2.83;1.65;;;24.70;1.00;;;;;;5133948;28;20048;-70
2023/05/31 09:29:27;;;;;;;4.03;1.52;;;24.60;1.00;;;;;;5153079;28;20022;-71
2023/05/31 09:32:09;;;;;;;2.30;1.90;;;24.90;1.00;;;;;;5131500;28;20038;-69
2023/05/31 09:34:41;;;;;;;5.88;2.10;;;25.30;1.00;;;;;;5131334;28;20042;-70
2023/05/31 09:37:23;;;;;;;2.10;1.63;;;25.00;1.00;;;;;;5170238;28;20038;-71
2023/05/31 09:39:55;;;;;;;3.03;1.83;;;25.90;1.00;;;;;;5103850;28;20038;-72
2023/05/31 09:42:31;;;;;;;2.53;1.45;;;26.50;1.00;;;;;;5117560;28;20397;-71
2023/05/31 09:45:06;;;;;;;2.40;1.95;;;26.90;1.00;;;;;;5165190;28;20351;-70
2023/05/31 09:47:40;;;;;;;2.05;1.75;;;26.30;1.00;;;;;;5133876;28;20030;-70
2023/05/31 09:50:21;;;;;;;1.88;1.65;;;26.50;1.00;;;;;;5133171;28;20034;-70
2023/05/31 09:53:01;;;;;;;2.47;1.70;;;26.40;1.00;;;;;;5116820;28;20026;-71
2023/05/31 09:55:42;;;;;;;2.58;1.83;;;26.90;1.00;;;;;;5116331;28;20034;-69
2023/05/31 09:58:30;;;;;;;3.80;2.08;;;27.50;1.00;;;;;;5121512;28;20038;-70
2023/05/31 10:01:01;;;;;;;8.82;2.28;;;27.90;1.00;;;;;;5130350;28;20100;-69
2023/05/31 10:03:34;;;;;;;3.88;2.13;;;27.20;1.00;;;;;;5132074;28;20049;-70
2023/05/31 10:06:06;;;;;;;3.40;2.17;;;27.50;1.00;;;;;;5122511;28;20504;-72
2023/05/31 10:08:41;;;;;;;3.25;2.28;;;28.00;1.00;;;;;;5116426;28;20053;-68
2023/05/31 10:11:20;;;;;;;2.20;1.90;;;28.00;1.00;;;;;;5118087;28;20026;-67
2023/05/31 10:13:57;;;;;;;2.75;1.60;;;29.00;1.00;;;;;;5147573;28;20038;-68
2023/05/31 10:16:38;;;;;;;2.08;1.75;;;28.20;1.00;;;;;;5146734;28;20139;-70
2023/05/31 10:19:15;;;;;;;2.75;2.08;;;26.90;1.00;;;;;;5142541;28;20042;-69
2023/05/31 10:21:50;;;;;;;2.80;1.80;;;26.80;1.00;;;;;;5149277;28;20022;-70
2023/05/31 10:24:41;;;;;;;2.53;2.10;;;27.10;1.00;;;;;;5131835;28;20035;-69
2023/05/31 10:27:39;;;;;;;3.80;2.00;;;28.70;1.00;;;;;;5169727;28;20029;-70
2023/05/31 10:30:14;;;;;;;3.33;2.05;;;29.30;1.00;;;;;;5190335;28;20207;-70
2023/05/31 10:32:58;;;;;;;3.42;1.88;;;30.00;1.00;;;;;;5116599;28;20029;-70
2023/05/31 10:35:29;;;;;;;2.58;1.60;;;30.40;99.90;;;;;;5147788;28;20029;-69
2023/05/31 10:38:05;;;;;;;3.08;1.55;;;30.70;99.90;;;;;;5163487;28;20041;-68
2023/05/31 10:40:52;;;;;;;3.17;2.00;;;30.70;92.70;;;;;;5203864;28;20463;-70
2023/05/31 10:43:55;;;;;;;3.25;1.80;;;31.70;99.90;;;;;;5118970;28;20036;-70
2023/05/31 10:46:28;;;;;;;3.05;1.77;;;31.90;99.90;;;;;;5158442;28;20057;-71
2023/05/31 10:49:00;;;;;;;2.78;2.08;;;32.80;99.90;;;;;;5132072;28;20034;-67
2023/05/31 10:51:47;;;;;;;2.40;1.55;;;31.80;1.00;;;;;;5163544;28;20035;-70
2023/05/31 10:54:34;;;;;;;2.97;1.73;;;32.60;1.00;;;;;;5130414;28;20564;-71
2023/05/31 10:57:07;;;;;;;3.03;1.77;;;33.50;1.00;;;;;;5094307;28;20045;-72
2023/05/31 10:59:44;;;;;;;2.88;2.08;;;33.10;1.00;;;;;;5113545;28;20034;-70
2023/05/31 11:02:18;;;;;;;5.97;1.67;;;33.40;1.00;;;;;;5138735;28;20051;-69
2023/05/31 11:04:52;;;;;;;8.27;2.00;;;34.50;1.00;;;;;;5171469;28;20158;-69
2023/05/31 11:07:25;;;;;;;;;;;34.70;1.00;;;;;;5191174;28;20037;-70
2023/05/31 11:09:59;;;;;;;2.67;1.88;;;35.30;1.00;;;;;;5132142;28;20255;-68
2023/05/31 11:12:37;;;;;;;;;;;36.10;1.00;;;;;;5104049;28;20031;-69
2023/05/31 11:15:13;;;;;;;2.60;1.77;;;35.80;1.00;;;;;;5124012;28;19918;-70
2023/05/31 11:17:53;;;;;;;2.10;1.90;;;34.60;1.00;;;;;;5179274;28;20035;-70
2023/05/31 11:20:26;;;;;;;2.28;1.80;;;34.20;1.00;;;;;;5114735;28;20049;-71
2023/05/31 11:23:23;;;;;;;1.70;1.60;;;35.00;1.00;;;;;;5134502;28;20060;-71
2023/05/31 11:26:07;;;;;;;4.88;2.78;;;35.60;1.00;;;;;;5167267;28;20584;-70
2023/05/31 11:29:01;;;;;;;4.57;2.08;;;35.20;6.50;;;;;;5150022;28;20177;-69
2023/05/31 11:31:48;;;;;;;;;;;35.90;36.20;;;;;;5163883;28;20726;-70
2023/05/31 11:34:24;;;;;;;4.47;2.28;;;35.40;1.00;;;;;;5152079;28;19920;-71
2023/05/31 11:37:04;;;;;;;2.75;2.10;;;35.80;96.90;;;;;;5176239;28;20064;-69
2023/05/31 11:39:35;;;;;;;2.40;2.20;;;37.10;99.90;;;;;;5148550;28;20043;-70
2023/05/31 11:42:09;;;;;;;2.35;2.00;;;37.60;1.00;;;;;;5135703;28;20022;-70
2023/05/31 11:44:48;;;;;;;3.30;3.00;;;35.80;1.00;;;;;;5134266;28;20026;-71
2023/05/31 11:47:23;;;;;;;2.65;1.90;;;35.20;1.00;;;;;;5165418;28;20034;-69
2023/05/31 11:49:57;;;;;;;3.53;2.40;;;35.30;99.90;;;;;;5152912;28;20030;-72
2023/05/31 11:52:31;;;;;;;2.70;1.85;;;36.20;99.90;;;;;;5118556;28;20208;-71
2023/05/31 11:55:07;;;;;;;2.33;2.00;;;34.90;1.00;;;;;;5237115;28;20044;-70
2023/05/31 11:57:44;;;;;;;3.40;2.35;;;34.90;1.00;;;;;;5134879;28;20717;-71
2023/05/31 12:00:20;;;;;;;7.20;2.03;;;35.60;1.00;;;;;;5131437;28;20259;-69
2023/05/31 12:03:02;;;;;;;4.35;1.98;;;37.10;1.00;;;;;;5121810;28;20026;-68
2023/05/31 12:05:36;;;;;;;3.17;2.40;;;35.70;99.90;;;;;;5137886;28;20053;-70
2023/05/31 12:08:13;;;;;;;3.08;2.08;;;34.40;99.90;;;;;;5138218;28;20026;-71
2023/05/31 12:10:45;;;;;;;4.55;2.60;;;33.60;99.90;;;;;;5117183;28;20042;-70
2023/05/31 12:13:19;;;;;;;2.72;2.10;;;34.20;99.90;;;;;;5113474;28;20409;-71
2023/05/31 12:15:57;;;;;;;2.53;2.25;;;34.90;38.10;;;;;;5152385;28;20042;-69
2023/05/31 12:18:30;;;;;;;5.32;2.92;;;35.30;1.00;;;;;;5112673;28;20038;-69
2023/05/31 12:21:08;;;;;;;;;;;34.10;1.00;;;;;;5153360;28;20048;-71
2023/05/31 12:24:02;;;;;;;3.42;2.38;;;33.30;1.00;;;;;;5150068;28;19905;-71
2023/05/31 12:26:36;;;;;;;4.00;1.88;;;32.40;99.90;;;;;;5136070;28;20042;-68
2023/05/31 12:29:09;;;;;;;2.42;2.10;;;32.50;99.90;;;;;;5120960;28;20054;-68
2023/05/31 12:31:42;;;;;;;4.22;2.20;;;34.00;1.00;;;;;;5131883;28;20057;-68
2023/05/31 12:34:17;;;;;;;2.50;2.13;;;35.00;1.00;;;;;;5116111;28;20030;-69
2023/05/31 12:36:50;;;;;;;5.57;2.75;;;36.10;1.00;;;;;;5134590;28;20322;-70
2023/05/31 12:39:24;;;;;;;2.88;2.15;;;37.20;1.00;;;;;;5140843;28;20037;-70
2023/05/31 12:41:58;;;;;;;3.70;2.72;;;38.20;1.00;;;;;;5202735;28;20038;-68
2023/05/31 12:44:31;;;;;;;3.67;2.47;;;38.00;99.90;;;;;;5151517;28;20044;-70
2023/05/31 12:47:06;;;;;;;2.53;2.20;;;38.20;99.90;;;;;;5115931;28;20034;-69
2023/05/31 12:49:38;;;;;;;2.60;2.38;;;39.50;99.90;;;;;;5150503;28;20591;-69
2023/05/31 12:52:10;;;;;;;3.42;2.30;;;39.50;1.00;;;;;;5234901;28;20606;-70
2023/05/31 12:54:45;;;;;;;2.25;2.05;;;38.60;99.90;;;;;;5134768;28;20129;-73
2023/05/31 12:57:16;;;;;;;3.97;2.33;;;38.30;1.00;;;;;;5150328;28;20030;-70
2023/05/31 13:00:04;;;;;;;6.03;2.35;;;38.80;99.90;;;;;;5152754;28;20030;-70
2023/05/31 13:02:37;;;;;;;5.20;2.20;;;39.70;1.00;;;;;;5117576;28;20584;-68
2023/05/31 13:05:09;;;;;;;3.83;2.55;;;40.50;1.00;;;;;;5125634;28;20050;-67
2023/05/31 13:07:41;;;;;;;3.03;2.50;;;40.80;1.00;;;;;;5169573;28;20026;-68
2023/05/31 13:10:14;;;;;;;2.90;2.17;;;40.80;45.50;;;;;;5154126;28;20044;-72
2023/05/31 13:12:45;;;;;;;2.70;2.30;;;41.00;52.40;;;;;;5131580;28;20041;-71
2023/05/31 13:15:17;;;;;;;2.78;2.10;;;39.80;1.00;;;;;;5158218;28;20126;-70
2023/05/31 13:17:53;;;;;;;4.88;2.70;;;39.20;1.00;;;;;;5122685;28;20253;-72
2023/05/31 13:20:27;;;;;;;2.92;2.67;;;38.70;99.90;;;;;;5118657;28;20056;-69
2023/05/31 13:22:58;;;;;;;3.08;2.30;;;38.80;1.00;;;;;;5153182;28;20068;-70
2023/05/31 13:25:30;;;;;;;2.78;2.50;;;37.90;1.00;;;;;;5143670;28;20042;-68
2023/05/31 13:28:07;;;;;;;3.60;2.53;;;36.40;99.90;;;;;;5151069;28;20064;-68
2023/05/31 13:30:38;;;;;;;2.90;2.47;;;34.20;99.90;;;;;;5142109;28;20109;-71
2023/05/31 13:33:12;;;;;;;3.00;2.55;;;33.00;1.00;;;;;;5153564;28;20022;-69
2023/05/31 13:35:43;;;;;;;4.07;2.85;;;33.90;99.90;;;;;;5117648;28;20034;-71
2023/05/31 13:38:20;;;;;;;2.42;2.15;;;36.10;99.90;;;;;;5147395;28;20227;-69